Time;durP1;ratioP1;P1;durP2;ratioP2;P2;SDS_P1;SDS_P2;PMS_P1;PMS_P2;Temp;Humidity;BMP_temperature;BMP_pressure;BME280_temperature;BME280_humidity;BME280_pressure;Samples;Min_cycle;Max_cycle;Signal;HPM_P1;HPM_P2
2021/08/15 05:22:20;;;;;;;45.77;18.23;;;;;;;21.97;56.26;99764.59;6045942;23;20847;31
2021/08/15 05:24:48;;;;;;;43.22;20.00;;;;;;;22.07;55.92;99760.31;4877724;29;20306;-87
2021/08/15 05:27:13;;;;;;;22.35;10.88;;;;;;;21.97;56.74;99761.00;4867580;29;20071;-82
2021/08/15 05:29:41;;;;;;;36.83;15.38;;;;;;;21.83;57.16;99758.06;4880065;29;20073;-82
2021/08/15 05:32:07;;;;;;;40.67;17.58;;;;;;;21.91;57.55;99748.59;4879821;29;20057;-81
2021/08/15 05:34:33;;;;;;;38.57;15.93;;;;;;;22.14;56.63;99746.47;4879757;29;20037;-81
2021/08/15 05:36:59;;;;;;;29.07;11.20;;;;;;;22.27;56.18;99742.28;4879411;29;20128;-81
2021/08/15 05:39:25;;;;;;;18.15;10.07;;;;;;;22.19;55.53;99743.41;4886276;29;20041;-95
2021/08/15 05:41:51;;;;;;;20.48;9.13;;;;;;;22.17;54.78;99734.63;4880590;29;20132;-82
2021/08/15 05:44:17;;;;;;;24.13;10.95;;;;;;;22.13;54.07;99733.75;4882636;29;20060;-86
2021/08/15 05:46:43;;;;;;;20.80;10.65;;;;;;;21.99;55.34;99739.97;4880337;29;20422;-92
2021/08/15 05:49:09;;;;;;;23.83;11.27;;;;;;;22.01;56.19;99731.22;4881343;29;20049;-78
2021/08/15 05:51:35;;;;;;;25.25;12.85;;;;;;;22.41;55.81;99730.47;4880296;29;20051;-87
2021/08/15 05:54:02;;;;;;;30.17;11.13;;;;;;;22.56;54.85;99734.22;4879471;29;20060;-79
2021/08/15 05:56:31;;;;;;;21.50;10.53;;;;;;;22.91;53.84;99724.56;4879271;29;20415;-78
2021/08/15 05:58:59;;;;;;;26.98;10.13;;;;;;;23.12;53.10;99719.19;4868586;29;20297;-79
2021/08/15 06:01:25;;;;;;;20.50;10.45;;;;;;;23.41;52.66;99739.69;4861170;29;20124;-78
2021/08/15 06:03:51;;;;;;;14.27;9.88;;;;;;;23.51;51.95;99729.78;4861151;29;20053;-79
2021/08/15 06:06:17;;;;;;;18.13;9.60;;;;;;;23.44;52.17;99724.16;4861079;29;20519;-80
2021/08/15 06:08:44;;;;;;;;;;;;;;;23.61;51.66;99723.47;4860332;29;20286;-79
2021/08/15 06:11:10;;;;;;;18.52;9.25;;;;;;;23.52;51.38;99727.78;4861682;29;19924;-80
2021/08/15 06:13:37;;;;;;;15.25;8.68;;;;;;;23.49;51.98;99723.00;4863532;29;20070;-95
2021/08/15 06:16:02;;;;;;;16.90;7.90;;;;;;;23.52;51.88;99725.00;4861927;29;20052;-88
2021/08/15 06:18:29;;;;;;;16.52;8.50;;;;;;;23.65;51.32;99720.69;4860606;29;20045;-81
2021/08/15 06:20:55;;;;;;;16.13;8.10;;;;;;;23.53;51.94;99721.81;4877869;29;20051;-81
2021/08/15 06:23:21;;;;;;;13.00;6.93;;;;;;;23.52;51.61;99720.22;4896920;29;20097;-80
2021/08/15 06:25:47;;;;;;;15.13;8.53;;;;;;;23.66;51.42;99713.91;4880143;29;20064;-80
2021/08/15 06:28:13;;;;;;;14.35;8.15;;;;;;;23.63;51.13;99714.69;4879721;29;20342;-80
2021/08/15 06:30:39;;;;;;;15.67;8.43;;;;;;;23.68;50.65;99717.94;4880885;29;20041;-79
2021/08/15 06:33:06;;;;;;;;;;;;;;;23.65;52.12;99715.09;4879344;29;20337;-78
2021/08/15 06:35:32;;;;;;;23.02;7.95;;;;;;;23.71;51.09;99713.56;4879244;29;20350;-92
2021/08/15 06:37:59;;;;;;;17.92;8.25;;;;;;;23.85;50.85;99710.81;4885727;29;20044;-80
2021/08/15 06:40:28;;;;;;;14.05;7.93;;;;;;;23.85;50.48;99712.81;4882764;29;20047;-94
2021/08/15 06:43:04;;;;;;;16.73;8.15;;;;;;;23.88;50.69;99704.47;4885015;29;20109;-93
2021/08/15 06:45:30;;;;;;;;;;;;;;;23.88;50.69;99696.09;4870838;29;20041;-92
2021/08/15 06:47:56;;;;;;;18.83;7.93;;;;;;;24.06;50.33;99696.13;4885442;29;19923;-95
2021/08/15 06:50:22;;;;;;;16.23;7.57;;;;;;;24.01;49.85;99692.94;4896789;29;20207;-79
2021/08/15 06:52:48;;;;;;;17.27;7.40;;;;;;;23.98;50.11;99694.53;4892952;29;20068;-91
2021/08/15 06:55:13;;;;;;;13.98;7.97;;;;;;;24.01;49.65;99688.16;4903266;29;20498;-86
2021/08/15 06:57:39;;;;;;;15.00;7.53;;;;;;;24.21;49.07;99690.59;4895391;29;20060;-86
2021/08/15 07:00:06;;;;;;;17.13;7.60;;;;;;;24.24;48.98;99692.56;4894375;29;20303;-81
2021/08/15 07:02:39;;;;;;;30.60;8.55;;;;;;;24.27;48.37;99695.38;4900207;29;20037;-94
2021/08/15 07:05:08;;;;;;;19.17;9.15;;;;;;;24.32;48.39;99694.19;4892650;29;20222;-81
2021/08/15 07:07:34;;;;;;;16.35;7.65;;;;;;;24.36;48.50;99678.22;4886369;29;20100;-85
2021/08/15 07:10:03;;;;;;;18.45;7.72;;;;;;;24.59;47.98;99689.84;4897094;29;20566;-95
2021/08/15 07:12:29;;;;;;;18.70;8.00;;;;;;;24.59;48.33;99686.25;4883448;29;20041;-92
2021/08/15 07:14:56;;;;;;;13.80;7.22;;;;;;;24.72;47.01;99678.28;4890561;29;20052;-93
2021/08/15 07:17:22;;;;;;;12.10;7.50;;;;;;;24.80;47.26;99688.25;4884108;29;20093;-80
2021/08/15 07:19:48;;;;;;;19.98;6.95;;;;;;;24.78;46.70;99685.84;4894313;29;20510;-92
2021/08/15 07:22:14;;;;;;;12.38;6.82;;;;;;;24.83;46.58;99681.84;4888223;29;20136;-94
2021/08/15 07:24:41;;;;;;;10.40;6.38;;;;;;;24.99;45.72;99684.22;4887993;29;20095;-95
2021/08/15 07:27:07;;;;;;;13.43;6.50;;;;;;;25.01;45.25;99679.84;4884904;29;20037;-95
2021/08/15 07:29:36;;;;;;;12.88;7.32;;;;;;;24.99;44.99;99675.84;4888855;29;20059;-82
2021/08/15 07:32:02;;;;;;;23.77;11.35;;;;;;;24.83;45.31;99679.88;4902763;29;20037;-79
2021/08/15 07:34:29;;;;;;;24.23;8.35;;;;;;;24.82;45.11;99669.88;4895026;29;20427;-76
2021/08/15 07:36:55;;;;;;;20.02;8.50;;;;;;;24.90;46.30;99675.44;4890021;29;20055;-78
2021/08/15 07:39:22;;;;;;;28.10;10.88;;;;;;;24.90;46.54;99673.47;4881455;29;20138;-80
2021/08/15 07:41:48;;;;;;;17.63;8.10;;;;;;;24.97;45.96;99653.88;4877253;29;20040;-93
2021/08/15 07:44:14;;;;;;;17.40;8.45;;;;;;;25.12;44.79;99660.25;4877219;29;20087;-84
2021/08/15 07:46:41;;;;;;;19.40;7.20;;;;;;;25.27;44.47;99669.44;4882171;29;20081;-83
2021/08/15 07:49:08;;;;;;;17.08;7.50;;;;;;;25.19;44.67;99663.03;4891030;29;20101;-80
2021/08/15 07:51:34;;;;;;;16.17;6.80;;;;;;;25.27;45.08;99666.63;4886903;29;20065;-84
2021/08/15 07:54:01;;;;;;;13.48;5.97;;;;;;;25.39;44.39;99663.38;4892649;29;20061;-89
2021/08/15 07:56:27;;;;;;;11.93;6.40;;;;;;;25.27;43.86;99669.44;4891594;29;20044;-89
2021/08/15 07:58:53;;;;;;;;;;;;;;;25.36;44.26;99678.19;4880872;29;20140;-79
2021/08/15 08:01:19;;;;;;;12.50;6.45;;;;;;;25.43;43.60;99675.38;4884462;29;19971;-81
2021/08/15 08:03:46;;;;;;;16.35;6.30;;;;;;;25.42;42.83;99673.78;4886761;29;20062;-80
2021/08/15 08:06:12;;;;;;;21.02;6.72;;;;;;;25.46;43.44;99670.94;4886313;29;20048;-80
2021/08/15 08:08:40;;;;;;;11.90;6.07;;;;;;;25.49;43.55;99665.34;4893596;29;20048;-79
2021/08/15 08:11:06;;;;;;;12.17;7.00;;;;;;;25.48;43.60;99658.16;4896603;29;20468;-82
2021/08/15 08:13:32;;;;;;;;;;;;;;;25.49;43.58;99670.16;4889036;29;20060;-81
2021/08/15 08:15:58;;;;;;;12.85;6.15;;;;;;;25.49;43.52;99668.13;4885782;29;19923;-80
2021/08/15 08:18:24;;;;;;;25.15;7.38;;;;;;;25.40;43.82;99648.19;4892468;29;20143;-78
2021/08/15 08:20:50;;;;;;;14.05;7.35;;;;;;;25.45;43.88;99653.38;4891926;29;20048;-94
2021/08/15 08:23:16;;;;;;;15.77;8.18;;;;;;;25.52;44.17;99653.34;4889526;29;20053;-79
2021/08/15 08:25:44;;;;;;;16.42;7.95;;;;;;;25.62;42.49;99640.50;4890383;29;20049;-86
2021/08/15 08:28:11;;;;;;;15.05;6.78;;;;;;;25.65;43.32;99644.50;4881088;29;20048;-91
2021/08/15 08:30:38;;;;;;;17.40;7.43;;;;;;;25.69;43.01;99640.47;4888686;29;20550;-80
2021/08/15 08:33:05;;;;;;;18.83;6.70;;;;;;;25.65;43.63;99641.69;4883679;29;20094;-80
2021/08/15 08:35:31;;;;;;;17.30;6.85;;;;;;;25.87;43.40;99642.41;4885329;29;20055;-76
2021/08/15 08:37:59;;;;;;;23.80;7.47;;;;;;;25.92;43.52;99634.34;4883922;29;20064;-94
2021/08/15 08:40:25;;;;;;;15.20;6.80;;;;;;;26.00;43.42;99638.72;4889241;29;20028;-83
2021/08/15 08:42:51;;;;;;;;;;;;;;;25.97;43.14;99638.75;4902657;29;20108;-77
2021/08/15 08:45:22;;;;;;;15.20;6.60;;;;;;;25.97;42.62;99619.94;4907024;29;19982;-78
2021/08/15 08:47:51;;;;;;;13.40;6.63;;;;;;;26.04;42.27;99635.09;4899301;29;20396;-78
2021/08/15 08:50:17;;;;;;;14.73;6.82;;;;;;;26.12;41.78;99636.63;4902435;29;20077;-78
2021/08/15 08:52:47;;;;;;;15.52;6.43;;;;;;;26.14;41.57;99623.03;4909516;29;20037;-79
2021/08/15 08:55:15;;;;;;;13.82;6.43;;;;;;;26.19;41.93;99620.59;4895447;29;20052;-78
2021/08/15 08:57:42;;;;;;;16.08;6.60;;;;;;;26.13;41.93;99625.03;4879604;29;20162;-79
2021/08/15 09:00:09;;;;;;;14.68;6.35;;;;;;;26.14;42.05;99607.00;4890484;29;20064;-80
2021/08/15 09:02:36;;;;;;;14.65;7.15;;;;;;;26.17;41.50;99611.00;4892038;29;20498;-82
2021/08/15 09:05:06;;;;;;;23.13;6.57;;;;;;;26.05;41.73;99605.88;4881438;29;20052;-85
2021/08/15 09:07:35;;;;;;;12.48;6.30;;;;;;;26.09;42.22;99603.84;4890812;29;20045;-79
2021/08/15 09:10:08;;;;;;;15.32;6.78;;;;;;;26.15;41.74;99614.19;4890577;29;20052;-93
2021/08/15 09:12:43;;;;;;;11.82;6.07;;;;;;;26.10;41.47;99597.84;4884352;29;20069;-79
2021/08/15 09:15:19;;;;;;;10.70;5.95;;;;;;;26.16;41.51;99601.00;4900559;29;20616;-80
2021/08/15 09:17:48;;;;;;;12.57;6.45;;;;;;;26.17;41.38;99591.38;4881691;29;20139;-83
2021/08/15 09:20:22;;;;;;;17.25;7.25;;;;;;;26.17;41.35;99589.38;4891375;29;20045;-80
2021/08/15 09:22:48;;;;;;;14.52;6.70;;;;;;;26.15;42.07;99596.59;4902933;29;20888;-81
2021/08/15 09:25:19;;;;;;;14.75;6.05;;;;;;;26.17;41.48;99594.19;4897655;29;20043;-81
2021/08/15 09:27:53;;;;;;;15.18;6.70;;;;;;;26.07;41.17;99576.25;4904989;29;20047;-81
2021/08/15 09:30:29;;;;;;;13.35;6.47;;;;;;;26.19;41.29;99581.38;4885061;29;20036;-80
2021/08/15 09:32:58;;;;;;;14.25;7.05;;;;;;;26.30;40.75;99581.28;4893250;29;20067;-80
2021/08/15 09:35:30;;;;;;;23.77;6.70;;;;;;;26.29;40.93;99579.69;4903085;29;20419;-80
2021/08/15 09:38:00;;;;;;;12.02;5.53;;;;;;;26.20;40.77;99570.94;4873208;29;20144;-80
2021/08/15 09:40:39;;;;;;;14.50;6.97;;;;;;;26.15;41.28;99579.78;4870670;29;20330;-82
2021/08/15 09:43:32;;;;;;;14.73;6.88;;;;;;;26.32;41.41;99567.63;4881737;29;20192;-82
2021/08/15 09:46:06;;;;;;;10.93;6.05;;;;;;;26.46;41.23;99566.72;4904094;29;20060;-81
2021/08/15 09:48:40;;;;;;;20.15;7.60;;;;;;;26.53;40.83;99563.09;4867008;29;20463;-81
2021/08/15 09:51:16;;;;;;;10.10;6.07;;;;;;;26.62;40.34;99568.97;4853085;29;20069;-82
2021/08/15 09:53:49;;;;;;;16.45;6.00;;;;;;;26.69;40.05;99552.09;4869617;29;20052;-80
2021/08/15 09:56:37;;;;;;;12.63;5.90;;;;;;;26.62;40.29;99552.97;4878487;29;20077;-81
2021/08/15 09:59:20;;;;;;;15.75;6.15;;;;;;;26.50;39.44;99545.06;4868355;29;20051;-81
2021/08/15 10:01:54;;;;;;;12.15;6.22;;;;;;;26.56;40.49;99537.81;4868300;29;20045;-91
2021/08/15 10:04:24;;;;;;;15.40;6.82;;;;;;;26.65;40.11;99549.31;4884583;29;20068;-94
2021/08/15 10:06:54;;;;;;;10.35;5.75;;;;;;;26.71;40.48;99539.22;4889383;29;20073;-82
2021/08/15 10:09:22;;;;;;;13.48;6.57;;;;;;;26.62;40.39;99529.72;4887467;29;20049;-90
2021/08/15 10:11:49;;;;;;;13.07;6.65;;;;;;;26.74;40.71;99525.59;4880308;29;20231;-82
2021/08/15 10:14:16;;;;;;;12.45;6.22;;;;;;;26.83;40.13;99526.69;4877751;29;20145;-90
2021/08/15 10:16:51;;;;;;;;;;;;;;;26.98;40.34;99534.94;4885331;29;20045;-85
2021/08/15 10:19:28;;;;;;;9.55;5.57;;;;;;;26.85;40.00;99504.63;4888956;29;19927;-85
2021/08/15 10:21:55;;;;;;;9.23;6.00;;;;;;;26.89;39.72;99522.22;4891100;29;20068;-80
2021/08/15 10:24:21;;;;;;;13.93;6.28;;;;;;;27.01;40.54;99532.09;4894945;29;20078;-79
2021/08/15 10:26:50;;;;;;;18.05;6.40;;;;;;;27.08;39.44;99522.78;4893892;29;20064;-78
2021/08/15 10:29:42;;;;;;;16.42;6.00;;;;;;;27.06;39.91;99514.78;4893779;29;20036;-86
2021/08/15 10:32:25;;;;;;;17.38;5.97;;;;;;;27.12;39.81;99515.13;4809557;29;20042;-77
2021/08/15 10:34:54;;;;;;;16.38;5.90;;;;;;;27.27;39.57;99524.19;4817756;29;20580;-87
2021/08/15 10:37:23;;;;;;;10.70;7.07;;;;;;;27.34;39.44;99510.84;4812409;29;20058;-78
2021/08/15 10:39:53;;;;;;;16.67;7.05;;;;;;;27.36;39.34;99522.44;4807796;29;20099;-79
2021/08/15 10:42:48;;;;;;;16.35;6.75;;;;;;;27.34;38.77;99518.47;4806760;29;20183;-79
2021/08/15 10:45:26;;;;;;;12.70;6.40;;;;;;;27.33;39.13;99509.25;4785084;29;20137;-81
2021/08/15 10:48:05;;;;;;;14.10;6.68;;;;;;;27.46;39.41;99514.31;4804285;29;20046;-83
2021/08/15 10:50:51;;;;;;;14.25;7.57;;;;;;;27.45;39.04;99502.28;4808126;29;20046;-80
2021/08/15 10:53:31;;;;;;;11.88;6.63;;;;;;;27.49;38.40;99505.81;4812843;29;20042;-78
2021/08/15 10:56:02;;;;;;;17.25;6.20;;;;;;;27.44;38.33;99483.03;4805183;29;20074;-79
2021/08/15 10:58:44;;;;;;;11.55;6.32;;;;;;;27.54;38.92;99498.94;4807005;29;20053;-79
2021/08/15 11:01:13;;;;;;;13.32;6.18;;;;;;;27.54;39.00;99494.09;4805628;29;20042;-79
2021/08/15 11:03:48;;;;;;;12.30;6.88;;;;;;;27.58;38.35;99497.66;4795844;29;20055;-78
2021/08/15 11:06:31;;;;;;;15.82;7.47;;;;;;;27.68;38.76;99492.28;4798902;29;20049;-78
2021/08/15 11:08:59;;;;;;;10.40;6.47;;;;;;;27.72;38.41;99488.22;4830384;29;20053;-78
2021/08/15 11:11:27;;;;;;;10.82;6.70;;;;;;;27.73;38.38;99484.19;4863258;29;20053;-78
2021/08/15 11:14:23;;;;;;;14.02;7.78;;;;;;;27.79;38.14;99493.75;4862937;29;20183;-77
2021/08/15 11:16:53;;;;;;;29.52;12.57;;;;;;;27.67;37.37;99485.09;4844747;29;20049;-78
2021/08/15 11:19:19;;;;;;;10.00;6.20;;;;;;;27.75;38.41;99493.00;4860263;29;20045;-79
2021/08/15 11:22:05;;;;;;;12.13;6.35;;;;;;;27.78;38.25;99483.75;4862416;29;20503;-78
2021/08/15 11:24:46;;;;;;;22.05;7.65;;;;;;;27.76;37.99;99477.75;4861409;29;20049;-78
2021/08/15 11:27:14;;;;;;;14.10;9.55;;;;;;;27.78;38.42;99477.31;4861479;29;20044;-78
2021/08/15 11:29:44;;;;;;;12.32;6.40;;;;;;;27.91;37.44;99474.69;4862306;29;20041;-78
2021/08/15 11:32:31;;;;;;;19.42;6.05;;;;;;;27.81;37.43;99471.63;4861630;29;20080;-78
2021/08/15 11:35:05;;;;;;;12.57;6.75;;;;;;;27.84;37.66;99484.03;4861081;29;20049;-86
2021/08/15 11:37:34;;;;;;;15.27;7.05;;;;;;;27.91;38.50;99483.13;4860348;29;20139;-78
2021/08/15 11:40:23;;;;;;;18.92;6.75;;;;;;;28.03;37.90;99474.88;4860738;29;20441;-78
2021/08/15 11:42:57;;;;;;;16.80;7.00;;;;;;;28.03;37.49;99460.03;4860408;29;20985;-81
2021/08/15 11:45:34;;;;;;;14.07;6.35;;;;;;;28.04;37.24;99464.44;4860512;29;20692;-78
2021/08/15 11:48:19;;;;;;;11.32;6.38;;;;;;;28.07;37.82;99452.34;4864064;29;20061;-78
2021/08/15 11:50:48;;;;;;;15.25;6.50;;;;;;;28.23;38.08;99455.25;4862181;29;20047;-82
2021/08/15 11:53:21;;;;;;;13.30;6.72;;;;;;;28.28;38.33;99459.59;4863594;29;20522;-78
2021/08/15 11:55:47;;;;;;;9.88;6.80;;;;;;;28.03;38.04;99449.59;4862867;29;20045;-78
2021/08/15 11:58:13;;;;;;;19.90;6.78;;;;;;;28.15;38.26;99447.41;4861608;29;20097;-78
2021/08/15 12:00:40;;;;;;;23.67;6.72;;;;;;;28.15;38.08;99448.19;4863383;29;20508;-78
2021/08/15 12:03:17;;;;;;;13.18;6.63;;;;;;;28.14;38.08;99440.16;4862798;29;20102;-78
2021/08/15 12:05:49;;;;;;;16.38;7.00;;;;;;;28.25;37.48;99432.34;4862532;29;20161;-78
2021/08/15 12:08:20;;;;;;;11.18;7.13;;;;;;;28.38;38.01;99443.72;4844074;29;20519;-78
2021/08/15 12:10:47;;;;;;;14.40;7.03;;;;;;;28.34;37.08;99438.19;4843856;29;20101;-78
2021/08/15 12:13:20;;;;;;;10.32;6.70;;;;;;;28.31;37.58;99436.22;4856078;29;20128;-78
2021/08/15 12:16:15;;;;;;;13.63;7.78;;;;;;;28.40;36.81;99441.31;4862289;29;20045;-79
2021/08/15 12:18:55;;;;;;;15.18;7.07;;;;;;;28.43;37.54;99417.97;4861187;29;20049;-78
2021/08/15 12:21:24;;;;;;;12.18;6.88;;;;;;;28.50;36.49;99418.59;4861337;29;20041;-78
2021/08/15 12:23:57;;;;;;;18.42;6.90;;;;;;;28.48;36.86;99417.47;4860891;29;20056;-79
2021/08/15 12:26:26;;;;;;;18.77;7.78;;;;;;;28.59;37.25;99414.44;4861126;29;20056;-78
2021/08/15 12:29:02;;;;;;;16.77;7.25;;;;;;;28.59;36.83;99417.25;4873470;29;20041;-78
2021/08/15 12:31:32;;;;;;;15.80;7.63;;;;;;;28.52;37.24;99423.81;4860653;29;20041;-79
2021/08/15 12:34:06;;;;;;;13.43;7.00;;;;;;;28.53;36.50;99425.41;4860433;29;20045;-79
2021/08/15 12:36:44;;;;;;;10.48;6.63;;;;;;;28.57;36.98;99415.66;4858561;29;20037;-78
2021/08/15 12:39:11;;;;;;;13.93;6.65;;;;;;;28.60;37.20;99413.22;4858837;29;20056;-79
2021/08/15 12:42:00;;;;;;;11.35;7.30;;;;;;;28.56;37.53;99404.84;4859853;29;20049;-79
2021/08/15 12:44:45;;;;;;;17.83;7.70;;;;;;;28.50;37.38;99403.75;4872083;29;20047;-85
2021/08/15 12:47:11;;;;;;;13.85;7.30;;;;;;;28.57;37.32;99417.66;4880507;29;20620;-82
2021/08/15 12:49:44;;;;;;;18.10;7.22;;;;;;;28.65;37.26;99405.06;4869370;29;20500;-79
2021/08/15 12:52:23;;;;;;;11.77;7.95;;;;;;;28.65;36.92;99393.81;4875677;29;20139;-80
2021/08/15 12:55:16;;;;;;;16.50;7.68;;;;;;;28.67;36.87;99394.16;4880179;29;20048;-79
2021/08/15 12:57:50;;;;;;;13.80;8.02;;;;;;;28.68;37.49;99407.00;4864997;29;20132;-79
2021/08/15 13:00:17;;;;;;;10.35;7.13;;;;;;;28.67;37.28;99402.59;4876705;29;20044;-79
2021/08/15 13:02:45;;;;;;;11.25;6.97;;;;;;;28.67;37.04;99388.53;4880034;29;20052;-81
2021/08/15 13:05:14;;;;;;;19.65;7.15;;;;;;;28.67;37.18;99393.38;4879581;29;20040;-90
2021/08/15 13:07:40;;;;;;;12.77;7.25;;;;;;;28.54;37.33;99390.41;4892731;29;20459;-81
2021/08/15 13:10:08;;;;;;;17.77;7.75;;;;;;;28.46;37.62;99398.22;4887574;29;20069;-87
2021/08/15 13:12:34;;;;;;;18.95;7.75;;;;;;;28.45;37.57;99391.00;4888243;29;20056;-82
2021/08/15 13:15:02;;;;;;;15.45;7.07;;;;;;;28.41;37.36;99397.91;4879882;29;20411;-82
2021/08/15 13:17:28;;;;;;;18.25;6.85;;;;;;;28.54;37.61;99390.41;4877902;29;20048;-81
2021/08/15 13:19:54;;;;;;;16.63;7.70;;;;;;;28.64;37.75;99392.19;4879452;29;20075;-78
2021/08/15 13:22:20;;;;;;;13.63;7.28;;;;;;;28.69;37.48;99393.72;4877736;29;20507;-83
2021/08/15 13:24:46;;;;;;;17.63;7.18;;;;;;;28.69;37.02;99391.72;4879905;29;20071;-82
2021/08/15 13:27:12;;;;;;;13.55;7.45;;;;;;;28.53;36.89;99386.81;4879688;29;20049;-82
2021/08/15 13:29:38;;;;;;;13.32;6.78;;;;;;;28.50;36.52;99384.84;4879120;29;20057;-81
2021/08/15 13:32:04;;;;;;;11.68;6.72;;;;;;;28.47;37.10;99393.38;4879477;29;20140;-82
2021/08/15 13:34:31;;;;;;;15.63;8.02;;;;;;;28.37;37.28;99388.72;4863104;29;20049;-82
2021/08/15 13:36:57;;;;;;;14.05;7.20;;;;;;;28.26;37.26;99380.53;4878987;29;20128;-81
2021/08/15 13:39:24;;;;;;;13.80;7.60;;;;;;;28.42;37.48;99372.19;4873920;29;20041;-83
2021/08/15 13:41:49;;;;;;;10.40;7.45;;;;;;;28.36;37.71;99379.50;4862012;29;20045;-82
2021/08/15 13:44:16;;;;;;;10.25;7.65;;;;;;;28.24;37.78;99380.16;4865466;29;20405;-81
2021/08/15 13:46:43;;;;;;;12.70;7.93;;;;;;;28.19;37.87;99380.66;4860955;29;20465;-82
2021/08/15 13:51:42;;;;;;;18.30;7.53;;;;;;;27.90;38.52;99364.34;4862291;29;20037;-92
2021/08/15 13:54:08;;;;;;;15.63;7.75;;;;;;;27.90;38.60;99372.75;4862696;29;20068;-85
2021/08/15 13:56:35;;;;;;;15.05;8.40;;;;;;;27.97;38.36;99358.56;4874080;29;20048;-82
2021/08/15 13:59:02;;;;;;;11.15;7.47;;;;;;;28.05;39.32;99371.28;4879651;29;20052;-82
2021/08/15 14:01:29;;;;;;;19.65;7.68;;;;;;;28.05;38.55;99356.44;4878161;29;20048;-81
2021/08/15 14:03:55;;;;;;;20.48;7.78;;;;;;;27.97;38.40;99352.16;4879597;29;20148;-82
2021/08/15 14:06:23;;;;;;;14.93;8.13;;;;;;;27.96;38.54;99365.44;4893228;29;20049;-81
2021/08/15 14:08:49;;;;;;;12.35;7.80;;;;;;;27.92;38.87;99361.09;4879310;29;20131;-79
2021/08/15 14:11:15;;;;;;;14.95;7.80;;;;;;;27.93;38.90;99363.47;4868047;29;20461;-84
2021/08/15 14:13:41;;;;;;;21.40;7.85;;;;;;;27.95;38.90;99354.63;4883487;29;20135;-94
2021/08/15 14:16:07;;;;;;;10.85;7.30;;;;;;;27.92;38.46;99361.91;4891763;29;20071;-85
2021/08/15 14:18:33;;;;;;;15.85;7.47;;;;;;;27.90;38.78;99347.47;4907996;29;20072;-79
2021/08/15 14:21:00;;;;;;;15.25;7.78;;;;;;;27.99;38.91;99349.72;4885949;29;20043;-83
2021/08/15 14:23:26;;;;;;;11.95;7.63;;;;;;;27.94;38.77;99348.19;4896337;29;20083;-88
2021/08/15 14:25:52;;;;;;;22.02;7.47;;;;;;;27.92;39.05;99344.25;4883032;29;20096;-87
2021/08/15 14:28:19;;;;;;;13.32;7.20;;;;;;;27.94;39.03;99345.38;4882674;29;20053;-79
2021/08/15 14:30:45;;;;;;;21.27;8.77;;;;;;;27.94;39.69;99347.41;4883645;29;20084;-80
2021/08/15 14:33:11;;;;;;;16.73;7.93;;;;;;;27.97;39.01;99346.53;4885707;29;20037;-85
2021/08/15 14:35:38;;;;;;;15.70;8.80;;;;;;;27.97;39.33;99343.72;4888117;29;20040;-88
2021/08/15 14:38:04;;;;;;;19.25;9.60;;;;;;;27.99;39.00;99338.50;4877725;29;20584;-86
2021/08/15 14:40:30;;;;;;;16.80;8.98;;;;;;;27.90;39.01;99336.22;4884306;29;20049;-85
2021/08/15 14:42:57;;;;;;;15.00;8.23;;;;;;;27.83;39.00;99325.13;4895841;29;20092;-91
2021/08/15 14:45:24;;;;;;;17.38;8.10;;;;;;;27.83;39.35;99337.16;4890170;29;20130;-92
2021/08/15 14:47:50;;;;;;;20.88;8.70;;;;;;;27.70;39.64;99322.13;4882703;29;20491;-92
2021/08/15 14:50:16;;;;;;;21.10;9.38;;;;;;;27.70;40.00;99333.38;4886362;29;20036;-80
2021/08/15 14:52:42;;;;;;;16.38;9.25;;;;;;;27.80;39.90;99328.81;4889102;29;20052;-86
2021/08/15 14:55:08;;;;;;;22.85;8.85;;;;;;;27.77;39.72;99327.63;4892790;29;20047;-89
2021/08/15 14:57:34;;;;;;;;;;;;;;;27.73;39.83;99329.69;4882010;29;20048;-92
2021/08/15 15:00:03;;;;;;;11.68;8.23;;;;;;;27.62;40.05;99327.09;4896501;29;20401;-91
2021/08/15 15:02:29;;;;;;;15.85;8.57;;;;;;;27.60;39.87;99337.16;4880795;29;20041;-84
2021/08/15 15:04:54;;;;;;;18.63;9.57;;;;;;;27.41;40.71;99331.03;4885099;29;20499;-80
2021/08/15 15:07:21;;;;;;;22.30;10.27;;;;;;;27.47;40.57;99322.94;4884126;29;20036;-91
2021/08/15 15:09:48;;;;;;;17.55;9.13;;;;;;;27.47;40.21;99320.13;4884184;29;20092;-86
2021/08/15 17:43:18;;;;;;;41.65;19.10;;;;;;;24.23;52.69;99350.94;5815596;23;20307;-86
2021/08/15 17:48:35;;;;;;;37.33;15.98;;;;;;;24.27;52.77;99348.97;4912853;29;20044;-86
2021/08/15 18:08:25;;;;;;;32.22;13.02;;;;;;;24.25;53.03;99344.97;5763715;23;20052;-79
2021/08/15 18:10:54;;;;;;;36.20;12.77;;;;;;;24.35;52.30;99349.72;4877099;29;20052;-78
2021/08/15 18:13:20;;;;;;;28.15;12.85;;;;;;;24.37;52.17;99341.72;4893705;29;20041;-86
2021/08/15 18:15:47;;;;;;;21.92;11.35;;;;;;;24.39;51.83;99333.72;4895299;29;20417;-79
2021/08/15 18:18:13;;;;;;;27.73;12.07;;;;;;;24.36;51.96;99326.94;4894146;29;20040;-79
2021/08/15 18:20:40;;;;;;;23.20;12.40;;;;;;;24.33;51.96;99336.13;4894469;29;20068;-79
2021/08/15 18:23:06;;;;;;;19.88;12.02;;;;;;;24.36;51.97;99332.53;4893541;29;20049;-78
2021/08/15 18:25:33;;;;;;;23.92;12.13;;;;;;;24.21;52.39;99330.22;4876994;29;20036;-78
2021/08/15 18:28:01;;;;;;;24.85;12.15;;;;;;;24.25;52.43;99337.38;4891929;29;20049;-78
2021/08/15 18:30:28;;;;;;;34.00;13.10;;;;;;;24.30;52.35;99331.38;4893292;29;20051;-78
2021/08/15 18:32:55;;;;;;;26.77;13.35;;;;;;;24.23;52.41;99330.59;4892919;29;20064;-78
2021/08/15 18:35:21;;;;;;;;;;;;;;;24.32;52.24;99342.16;4893718;29;20120;-79
2021/08/15 18:37:47;;;;;;;20.27;12.43;;;;;;;24.24;52.13;99323.81;4891144;29;19968;-78
2021/08/15 18:40:21;;;;;;;21.30;12.70;;;;;;;24.37;52.14;99336.94;5117060;23;20085;-91
2021/08/15 18:42:52;;;;;;;;;;;;;;;24.39;51.88;99344.91;4919494;29;20090;-80
2021/08/15 18:45:20;;;;;;;22.45;11.35;;;;;;;24.43;51.65;99340.13;4920742;29;19938;-84
2021/08/15 18:47:46;;;;;;;;;;;;;;;24.50;51.32;99345.72;4925561;29;20125;-82
2021/08/15 18:50:12;;;;;;;;;;;;;;;24.44;51.58;99350.13;4905738;29;19923;-88
2021/08/15 18:52:39;;;;;;;23.65;10.88;;;;;;;24.41;51.33;99345.34;4922766;29;19957;-88
2021/08/15 18:55:08;;;;;;;18.83;10.27;;;;;;;24.47;51.17;99340.94;4917546;29;20048;-81
2021/08/15 18:57:45;;;;;;;15.82;10.15;;;;;;;24.41;51.19;99348.13;4902302;29;20035;-80
2021/08/15 19:00:17;;;;;;;18.85;9.73;;;;;;;24.44;51.26;99352.91;4923312;29;20556;-82
2021/08/15 19:33:15;;;;;;;31.00;12.73;;;;;;;23.96;53.18;99339.47;5652581;23;20055;-91
2021/08/15 19:35:43;;;;;;;22.33;13.38;;;;;;;23.83;53.58;99336.31;4907499;29;20052;-92
2021/08/15 19:38:09;;;;;;;24.92;13.07;;;;;;;23.75;54.24;99333.94;4939526;29;20044;-82
2021/08/15 19:40:36;;;;;;;25.98;13.07;;;;;;;23.53;54.89;99333.94;4937181;29;20039;-81
2021/08/15 19:43:04;;;;;;;22.50;13.45;;;;;;;23.34;55.48;99318.38;4936395;29;20102;-81
2021/08/15 19:45:31;;;;;;;23.42;13.68;;;;;;;23.05;56.07;99317.59;4935256;29;20035;-88
2021/08/15 19:47:59;;;;;;;21.95;12.77;;;;;;;22.85;56.85;99333.09;4901904;29;20062;-86
2021/08/15 19:50:25;;;;;;;31.05;13.48;;;;;;;22.67;57.79;99338.59;4897597;29;20066;-85
2021/08/15 19:52:51;;;;;;;21.67;14.02;;;;;;;22.49;58.52;99330.19;4934553;29;20043;-85
2021/08/15 19:55:20;;;;;;;28.88;13.77;;;;;;;22.36;58.99;99338.13;4917910;29;20134;-94
2021/08/15 19:57:46;;;;;;;24.45;13.85;;;;;;;22.20;59.59;99344.00;4910667;29;20046;-87
2021/08/15 20:00:13;;;;;;;29.58;14.05;;;;;;;22.13;60.02;99345.94;4882258;29;20409;-87
2021/08/15 20:02:39;;;;;;;;;;;;;;;22.00;60.60;99345.47;4929778;29;20048;-88
2021/08/15 20:05:06;;;;;;;28.88;14.70;;;;;;;21.66;60.80;99320.63;4919401;29;19918;-94
2021/08/15 20:07:33;;;;;;;27.80;16.30;;;;;;;21.66;61.29;99330.97;4907012;29;20114;-87
2021/08/15 20:10:02;;;;;;;32.17;15.63;;;;;;;21.57;61.68;99332.06;4904022;29;20071;-88
2021/08/15 20:12:29;;;;;;;31.42;16.48;;;;;;;21.52;61.73;99335.22;4920874;29;20414;-88
2021/08/15 20:14:55;;;;;;;38.10;16.77;;;;;;;21.35;62.17;99319.19;4932432;29;20043;-87
2021/08/15 20:17:21;;;;;;;31.07;17.33;;;;;;;21.26;62.37;99319.50;4939083;29;20526;-88
2021/08/15 20:19:47;;;;;;;36.65;18.45;;;;;;;21.26;62.40;99325.06;4939088;29;20050;-93
2021/08/15 20:22:13;;;;;;;32.93;19.40;;;;;;;21.34;62.36;99331.47;4940384;29;20039;-94